sensor_id;sensor_type;location;lat;lon;timestamp;pressure;altitude;pressure_sealevel;temperature;humidity
14273;BME280;7220;49.450;11.052;2023-07-22T00:01:22;98044.41;;;15.68;100.00
14273;BME280;7220;49.450;11.052;2023-07-22T00:05:22;98037.09;;;15.70;100.00
14273;BME280;7220;49.450;11.052;2023-07-22T00:09:23;98051.44;;;15.57;100.00
14273;BME280;7220;49.450;11.052;2023-07-22T00:13:24;98046.16;;;15.44;100.00
14273;BME280;7220;49.450;11.052;2023-07-22T00:17:26;98051.75;;;15.41;100.00
14273;BME280;7220;49.450;11.052;2023-07-22T00:21:27;98051.84;;;15.40;100.00
14273;BME280;7220;49.450;11.052;2023-07-22T00:25:29;98048.34;;;15.51;100.00
14273;BME280;7220;49.450;11.052;2023-07-22T00:29:29;98052.88;;;15.50;100.00
14273;BME280;7220;49.450;11.052;2023-07-22T00:33:29;98037.03;;;15.47;100.00
14273;BME280;7220;49.450;11.052;2023-07-22T00:37:30;98050.94;;;15.52;100.00
14273;BME280;7220;49.450;11.052;2023-07-22T00:41:30;98036.59;;;15.53;100.00
14273;BME280;7220;49.450;11.052;2023-07-22T00:45:30;98034.75;;;15.54;100.00
14273;BME280;7220;49.450;11.052;2023-07-22T00:49:31;98022.94;;;15.45;100.00
14273;BME280;7220;49.450;11.052;2023-07-22T00:53:32;98034.69;;;15.42;100.00
14273;BME280;7220;49.450;11.052;2023-07-22T00:57:32;98031.31;;;15.40;100.00
14273;BME280;7220;49.450;11.052;2023-07-22T01:01:32;98035.88;;;15.27;100.00
14273;BME280;7220;49.450;11.052;2023-07-22T01:05:34;98022.59;;;15.25;100.00
14273;BME280;7220;49.450;11.052;2023-07-22T01:09:38;98022.75;;;15.35;100.00
14273;BME280;7220;49.450;11.052;2023-07-22T01:13:39;98021.38;;;15.18;100.00
14273;BME280;7220;49.450;11.052;2023-07-22T01:17:39;98024.97;;;15.06;100.00
14273;BME280;7220;49.450;11.052;2023-07-22T01:21:40;98022.94;;;15.09;100.00
14273;BME280;7220;49.450;11.052;2023-07-22T01:25:43;98024.72;;;15.09;100.00
14273;BME280;7220;49.450;11.052;2023-07-22T01:29:43;98019.91;;;15.14;100.00
14273;BME280;7220;49.450;11.052;2023-07-22T01:33:44;98027.06;;;15.13;100.00
14273;BME280;7220;49.450;11.052;2023-07-22T01:37:45;98020.13;;;15.11;100.00
14273;BME280;7220;49.450;11.052;2023-07-22T01:41:45;98018.41;;;15.10;100.00
14273;BME280;7220;49.450;11.052;2023-07-22T01:45:45;98010.50;;;15.08;100.00
14273;BME280;7220;49.450;11.052;2023-07-22T01:49:46;98016.72;;;15.09;100.00
14273;BME280;7220;49.450;11.052;2023-07-22T01:53:46;98011.34;;;15.09;100.00
14273;BME280;7220;49.450;11.052;2023-07-22T01:57:46;98024.84;;;15.07;100.00
14273;BME280;7220;49.450;11.052;2023-07-22T02:01:47;98009.88;;;15.05;100.00
14273;BME280;7220;49.450;11.052;2023-07-22T02:05:48;98003.56;;;15.06;100.00
14273;BME280;7220;49.450;11.052;2023-07-22T02:09:48;98020.19;;;14.98;100.00
14273;BME280;7220;49.450;11.052;2023-07-22T02:13:52;98020.38;;;14.83;100.00
14273;BME280;7220;49.450;11.052;2023-07-22T02:17:52;98023.03;;;14.83;100.00
14273;BME280;7220;49.450;11.052;2023-07-22T02:21:55;98036.31;;;14.85;100.00
14273;BME280;7220;49.450;11.052;2023-07-22T02:25:55;98033.03;;;14.69;100.00
14273;BME280;7220;49.450;11.052;2023-07-22T02:29:55;98026.94;;;14.66;100.00
14273;BME280;7220;49.450;11.052;2023-07-22T02:33:56;98036.34;;;14.72;100.00
14273;BME280;7220;49.450;11.052;2023-07-22T02:37:56;98027.03;;;14.65;100.00
14273;BME280;7220;49.450;11.052;2023-07-22T02:41:57;98034.63;;;14.71;100.00
14273;BME280;7220;49.450;11.052;2023-07-22T02:45:59;98030.78;;;14.62;100.00
14273;BME280;7220;49.450;11.052;2023-07-22T02:50:00;98039.28;;;14.56;100.00
14273;BME280;7220;49.450;11.052;2023-07-22T02:54:00;98052.97;;;14.51;100.00
14273;BME280;7220;49.450;11.052;2023-07-22T02:58:01;98038.72;;;14.51;100.00
14273;BME280;7220;49.450;11.052;2023-07-22T03:02:01;98034.06;;;14.42;100.00
14273;BME280;7220;49.450;11.052;2023-07-22T03:06:02;98042.94;;;14.42;100.00
14273;BME280;7220;49.450;11.052;2023-07-22T03:10:04;98041.44;;;14.38;100.00
14273;BME280;7220;49.450;11.052;2023-07-22T03:14:05;98050.53;;;14.35;100.00
14273;BME280;7220;49.450;11.052;2023-07-22T03:18:06;98044.88;;;14.27;100.00
14273;BME280;7220;49.450;11.052;2023-07-22T03:22:13;98055.06;;;14.22;100.00
14273;BME280;7220;49.450;11.052;2023-07-22T03:26:14;98043.72;;;14.18;100.00
14273;BME280;7220;49.450;11.052;2023-07-22T03:30:17;98061.34;;;14.21;100.00
14273;BME280;7220;49.450;11.052;2023-07-22T03:34:18;98053.00;;;14.26;100.00
14273;BME280;7220;49.450;11.052;2023-07-22T03:38:18;98071.59;;;14.27;100.00
14273;BME280;7220;49.450;11.052;2023-07-22T03:42:18;98088.50;;;14.28;100.00
14273;BME280;7220;49.450;11.052;2023-07-22T03:46:19;98082.53;;;14.24;100.00
14273;BME280;7220;49.450;11.052;2023-07-22T03:50:19;98084.97;;;14.27;100.00
14273;BME280;7220;49.450;11.052;2023-07-22T03:54:20;98102.28;;;14.34;100.00
14273;BME280;7220;49.450;11.052;2023-07-22T03:58:20;98098.66;;;14.35;100.00
14273;BME280;7220;49.450;11.052;2023-07-22T04:02:20;98098.44;;;14.39;100.00
14273;BME280;7220;49.450;11.052;2023-07-22T04:06:21;98090.41;;;14.51;100.00
14273;BME280;7220;49.450;11.052;2023-07-22T04:10:21;98087.84;;;14.50;100.00
14273;BME280;7220;49.450;11.052;2023-07-22T04:14:22;98088.56;;;14.52;100.00
14273;BME280;7220;49.450;11.052;2023-07-22T04:18:23;98091.88;;;14.56;100.00
14273;BME280;7220;49.450;11.052;2023-07-22T04:22:23;98100.53;;;14.59;100.00
14273;BME280;7220;49.450;11.052;2023-07-22T04:26:23;98096.16;;;14.58;100.00
14273;BME280;7220;49.450;11.052;2023-07-22T04:30:24;98101.41;;;14.60;100.00
14273;BME280;7220;49.450;11.052;2023-07-22T04:34:28;98113.41;;;14.67;100.00
14273;BME280;7220;49.450;11.052;2023-07-22T04:38:29;98112.31;;;14.70;100.00
14273;BME280;7220;49.450;11.052;2023-07-22T04:42:29;98107.59;;;14.73;100.00
14273;BME280;7220;49.450;11.052;2023-07-22T04:46:29;98104.47;;;14.79;100.00
14273;BME280;7220;49.450;11.052;2023-07-22T04:50:30;98109.94;;;14.78;100.00
14273;BME280;7220;49.450;11.052;2023-07-22T04:54:30;98098.16;;;14.80;100.00
14273;BME280;7220;49.450;11.052;2023-07-22T04:58:31;98095.41;;;14.82;100.00
14273;BME280;7220;49.450;11.052;2023-07-22T05:02:32;98114.00;;;14.83;100.00
14273;BME280;7220;49.450;11.052;2023-07-22T05:06:32;98123.00;;;14.82;100.00
14273;BME280;7220;49.450;11.052;2023-07-22T05:10:33;98120.75;;;14.89;100.00
14273;BME280;7220;49.450;11.052;2023-07-22T05:14:33;98130.88;;;14.97;100.00
14273;BME280;7220;49.450;11.052;2023-07-22T05:18:33;98119.38;;;15.08;100.00
14273;BME280;7220;49.450;11.052;2023-07-22T05:22:33;98120.41;;;15.18;100.00
14273;BME280;7220;49.450;11.052;2023-07-22T05:26:34;98141.47;;;15.23;100.00
14273;BME280;7220;49.450;11.052;2023-07-22T05:30:34;98124.84;;;15.30;100.00
14273;BME280;7220;49.450;11.052;2023-07-22T05:34:34;98126.84;;;15.40;100.00
14273;BME280;7220;49.450;11.052;2023-07-22T05:38:35;98133.22;;;15.50;100.00
14273;BME280;7220;49.450;11.052;2023-07-22T05:42:35;98125.25;;;15.61;99.95
14273;BME280;7220;49.450;11.052;2023-07-22T05:46:36;98129.38;;;15.66;99.53
14273;BME280;7220;49.450;11.052;2023-07-22T05:50:36;98132.56;;;15.71;99.45
14273;BME280;7220;49.450;11.052;2023-07-22T05:54:36;98124.91;;;15.77;99.00
14273;BME280;7220;49.450;11.052;2023-07-22T05:58:37;98139.72;;;15.83;98.41
14273;BME280;7220;49.450;11.052;2023-07-22T06:02:37;98130.19;;;15.55;100.00
14273;BME280;7220;49.450;11.052;2023-07-22T06:06:37;98142.50;;;15.57;99.65
14273;BME280;7220;49.450;11.052;2023-07-22T06:10:37;98149.63;;;15.45;99.15
14273;BME280;7220;49.450;11.052;2023-07-22T06:14:38;98158.41;;;15.48;99.66
14273;BME280;7220;49.450;11.052;2023-07-22T06:18:38;98168.31;;;15.58;99.17
14273;BME280;7220;49.450;11.052;2023-07-22T06:22:39;98162.34;;;15.55;98.63
14273;BME280;7220;49.450;11.052;2023-07-22T06:26:39;98183.63;;;15.56;98.91
14273;BME280;7220;49.450;11.052;2023-07-22T06:30:39;98190.50;;;15.60;98.10
14273;BME280;7220;49.450;11.052;2023-07-22T06:34:39;98185.50;;;15.67;98.50
14273;BME280;7220;49.450;11.052;2023-07-22T06:38:40;98184.06;;;15.74;97.54
14273;BME280;7220;49.450;11.052;2023-07-22T06:42:40;98185.78;;;15.75;97.89
14273;BME280;7220;49.450;11.052;2023-07-22T06:46:40;98181.81;;;15.81;97.22
14273;BME280;7220;49.450;11.052;2023-07-22T06:50:47;98193.28;;;15.83;96.59
14273;BME280;7220;49.450;11.052;2023-07-22T06:54:47;98190.63;;;15.95;96.18
14273;BME280;7220;49.450;11.052;2023-07-22T06:58:48;98188.22;;;16.03;95.46
14273;BME280;7220;49.450;11.052;2023-07-22T07:02:48;98186.44;;;16.03;95.45
14273;BME280;7220;49.450;11.052;2023-07-22T07:06:49;98198.53;;;16.20;94.73
14273;BME280;7220;49.450;11.052;2023-07-22T07:10:50;98186.00;;;16.21;94.53
14273;BME280;7220;49.450;11.052;2023-07-22T07:14:51;98183.22;;;16.45;94.25
14273;BME280;7220;49.450;11.052;2023-07-22T07:18:52;98193.97;;;16.56;92.18
14273;BME280;7220;49.450;11.052;2023-07-22T07:22:52;98201.28;;;16.66;91.53
14273;BME280;7220;49.450;11.052;2023-07-22T07:26:53;98211.88;;;16.79;90.67
14273;BME280;7220;49.450;11.052;2023-07-22T07:30:53;98208.84;;;16.83;90.60
14273;BME280;7220;49.450;11.052;2023-07-22T07:34:53;98202.75;;;16.81;88.62
14273;BME280;7220;49.450;11.052;2023-07-22T07:38:54;98229.44;;;16.71;88.84
14273;BME280;7220;49.450;11.052;2023-07-22T07:42:54;98218.97;;;16.80;87.90
14273;BME280;7220;49.450;11.052;2023-07-22T07:46:55;98219.47;;;16.74;86.67
14273;BME280;7220;49.450;11.052;2023-07-22T07:50:56;98223.88;;;16.86;85.63
14273;BME280;7220;49.450;11.052;2023-07-22T07:54:56;98224.00;;;17.07;85.45
14273;BME280;7220;49.450;11.052;2023-07-22T07:58:56;98223.53;;;17.02;85.17
14273;BME280;7220;49.450;11.052;2023-07-22T08:02:57;98223.28;;;16.94;85.55
14273;BME280;7220;49.450;11.052;2023-07-22T08:06:57;98227.91;;;17.03;83.79
14273;BME280;7220;49.450;11.052;2023-07-22T08:11:05;98218.13;;;17.25;83.14
14273;BME280;7220;49.450;11.052;2023-07-22T08:15:06;98211.88;;;17.47;82.53
14273;BME280;7220;49.450;11.052;2023-07-22T08:19:06;98211.56;;;17.73;81.58
14273;BME280;7220;49.450;11.052;2023-07-22T08:23:06;98220.28;;;17.97;80.28
14273;BME280;7220;49.450;11.052;2023-07-22T08:27:07;98204.81;;;18.11;79.88
14273;BME280;7220;49.450;11.052;2023-07-22T08:31:07;98206.34;;;18.25;76.04
14273;BME280;7220;49.450;11.052;2023-07-22T08:35:08;98205.56;;;18.34;74.93
14273;BME280;7220;49.450;11.052;2023-07-22T08:39:08;98199.53;;;18.52;73.83
14273;BME280;7220;49.450;11.052;2023-07-22T08:43:10;98195.03;;;18.83;72.56
14273;BME280;7220;49.450;11.052;2023-07-22T08:47:15;98196.00;;;19.03;72.19
14273;BME280;7220;49.450;11.052;2023-07-22T08:51:17;98197.34;;;19.19;70.10
14273;BME280;7220;49.450;11.052;2023-07-22T08:55:18;98192.94;;;19.28;70.39
14273;BME280;7220;49.450;11.052;2023-07-22T08:59:18;98198.50;;;19.36;68.95
14273;BME280;7220;49.450;11.052;2023-07-22T09:03:19;98196.16;;;19.62;68.32
14273;BME280;7220;49.450;11.052;2023-07-22T09:07:20;98188.06;;;19.82;68.13
14273;BME280;7220;49.450;11.052;2023-07-22T09:11:20;98185.69;;;19.98;66.07
14273;BME280;7220;49.450;11.052;2023-07-22T09:15:21;98194.34;;;20.02;64.75
14273;BME280;7220;49.450;11.052;2023-07-22T09:19:23;98180.00;;;20.01;65.10
14273;BME280;7220;49.450;11.052;2023-07-22T09:23:34;98185.41;;;20.01;62.93
14273;BME280;7220;49.450;11.052;2023-07-22T09:27:35;98176.59;;;19.99;63.38
14273;BME280;7220;49.450;11.052;2023-07-22T09:31:48;98162.66;;;20.14;63.24
14273;BME280;7220;49.450;11.052;2023-07-22T09:35:49;98172.31;;;20.26;61.37
14273;BME280;7220;49.450;11.052;2023-07-22T09:39:50;98157.25;;;20.33;60.88
14273;BME280;7220;49.450;11.052;2023-07-22T09:43:50;98162.28;;;20.56;59.95
14273;BME280;7220;49.450;11.052;2023-07-22T09:47:52;98155.59;;;20.60;59.11
14273;BME280;7220;49.450;11.052;2023-07-22T09:51:53;98157.41;;;20.79;58.48
14273;BME280;7220;49.450;11.052;2023-07-22T09:55:53;98139.13;;;20.91;56.95
14273;BME280;7220;49.450;11.052;2023-07-22T09:59:54;98142.03;;;21.08;56.27
14273;BME280;7220;49.450;11.052;2023-07-22T10:03:55;98139.53;;;21.24;55.98
14273;BME280;7220;49.450;11.052;2023-07-22T10:07:57;98129.97;;;21.48;54.75
14273;BME280;7220;49.450;11.052;2023-07-22T10:11:58;98127.53;;;21.73;53.14
14273;BME280;7220;49.450;11.052;2023-07-22T10:15:59;98122.69;;;21.58;54.53
14273;BME280;7220;49.450;11.052;2023-07-22T10:20:01;98131.31;;;21.44;54.54
14273;BME280;7220;49.450;11.052;2023-07-22T10:24:06;98118.31;;;21.30;54.38
14273;BME280;7220;49.450;11.052;2023-07-22T10:28:07;98123.94;;;21.18;54.43
14273;BME280;7220;49.450;11.052;2023-07-22T10:32:08;98124.28;;;21.05;54.61
14273;BME280;7220;49.450;11.052;2023-07-22T10:36:16;98137.25;;;21.02;55.57
14273;BME280;7220;49.450;11.052;2023-07-22T10:40:26;98122.81;;;20.93;55.28
14273;BME280;7220;49.450;11.052;2023-07-22T10:44:31;98121.72;;;20.76;55.98
14273;BME280;7220;49.450;11.052;2023-07-22T10:48:36;98119.28;;;20.83;55.74
14273;BME280;7220;49.450;11.052;2023-07-22T10:52:39;98124.09;;;20.89;55.95
14273;BME280;7220;49.450;11.052;2023-07-22T10:56:42;98117.53;;;21.19;54.88
14273;BME280;7220;49.450;11.052;2023-07-22T11:00:43;98120.56;;;21.52;54.53
14273;BME280;7220;49.450;11.052;2023-07-22T11:04:43;98112.97;;;22.10;53.10
14273;BME280;7220;49.450;11.052;2023-07-22T11:08:44;98118.69;;;22.07;52.10
14273;BME280;7220;49.450;11.052;2023-07-22T11:12:44;98102.69;;;21.96;52.72
14273;BME280;7220;49.450;11.052;2023-07-22T11:16:46;98098.63;;;22.18;52.78
14273;BME280;7220;49.450;11.052;2023-07-22T11:20:52;98094.94;;;22.80;50.63
14273;BME280;7220;49.450;11.052;2023-07-22T11:24:53;98094.13;;;22.88;50.26
14273;BME280;7220;49.450;11.052;2023-07-22T11:28:53;98077.69;;;23.57;48.31
14273;BME280;7220;49.450;11.052;2023-07-22T11:32:57;98066.63;;;25.90;43.82
14273;BME280;7220;49.450;11.052;2023-07-22T11:36:59;98074.84;;;25.44;43.30
14273;BME280;7220;49.450;11.052;2023-07-22T11:40:59;98084.13;;;23.89;46.87
14273;BME280;7220;49.450;11.052;2023-07-22T11:44:59;98072.09;;;23.34;48.02
14273;BME280;7220;49.450;11.052;2023-07-22T11:49:00;98065.72;;;23.08;49.23
14273;BME280;7220;49.450;11.052;2023-07-22T11:53:01;98081.44;;;23.39;48.87
14273;BME280;7220;49.450;11.052;2023-07-22T11:57:21;98073.44;;;23.46;48.35
14273;BME280;7220;49.450;11.052;2023-07-22T12:01:22;98061.25;;;23.34;48.88
14273;BME280;7220;49.450;11.052;2023-07-22T12:05:23;98041.59;;;23.65;48.05
14273;BME280;7220;49.450;11.052;2023-07-22T12:09:23;98045.47;;;25.62;43.99
14273;BME280;7220;49.450;11.052;2023-07-22T12:13:25;98019.88;;;27.06;40.47
14273;BME280;7220;49.450;11.052;2023-07-22T12:17:25;98025.94;;;28.17;38.02
14273;BME280;7220;49.450;11.052;2023-07-22T12:21:27;98028.63;;;28.45;37.83
14273;BME280;7220;49.450;11.052;2023-07-22T12:25:27;98026.41;;;26.60;39.21
14273;BME280;7220;49.450;11.052;2023-07-22T12:29:27;98012.09;;;25.98;40.17
14273;BME280;7220;49.450;11.052;2023-07-22T12:33:28;98001.56;;;25.42;41.96
14273;BME280;7220;49.450;11.052;2023-07-22T12:37:28;98012.06;;;25.22;42.24
14273;BME280;7220;49.450;11.052;2023-07-22T12:41:28;98006.94;;;24.72;43.61
14273;BME280;7220;49.450;11.052;2023-07-22T12:45:29;97990.34;;;24.11;44.49
14273;BME280;7220;49.450;11.052;2023-07-22T12:49:29;97988.22;;;26.09;41.88
14273;BME280;7220;49.450;11.052;2023-07-22T12:53:30;97984.25;;;27.08;40.71
14273;BME280;7220;49.450;11.052;2023-07-22T12:57:30;97989.25;;;26.74;40.51
14273;BME280;7220;49.450;11.052;2023-07-22T13:01:30;97975.13;;;27.01;40.35
14273;BME280;7220;49.450;11.052;2023-07-22T13:05:31;97983.59;;;27.78;39.14
14273;BME280;7220;49.450;11.052;2023-07-22T13:09:31;97974.03;;;27.89;38.26
14273;BME280;7220;49.450;11.052;2023-07-22T13:13:31;97972.25;;;27.74;37.21
14273;BME280;7220;49.450;11.052;2023-07-22T13:17:31;97959.69;;;28.43;36.18
14273;BME280;7220;49.450;11.052;2023-07-22T13:21:32;97971.63;;;27.50;37.45
14273;BME280;7220;49.450;11.052;2023-07-22T13:25:32;97959.53;;;27.88;36.85
14273;BME280;7220;49.450;11.052;2023-07-22T13:29:33;97958.25;;;27.55;37.15
14273;BME280;7220;49.450;11.052;2023-07-22T13:33:34;97945.16;;;28.98;33.57
14273;BME280;7220;49.450;11.052;2023-07-22T13:37:34;97942.59;;;28.28;34.69
14273;BME280;7220;49.450;11.052;2023-07-22T13:41:34;97950.84;;;27.28;35.94
14273;BME280;7220;49.450;11.052;2023-07-22T13:45:35;97948.56;;;26.36;38.01
14273;BME280;7220;49.450;11.052;2023-07-22T13:49:35;97949.09;;;25.87;39.65
14273;BME280;7220;49.450;11.052;2023-07-22T13:53:35;97947.34;;;25.17;40.21
14273;BME280;7220;49.450;11.052;2023-07-22T13:57:35;97947.41;;;24.54;41.94
14273;BME280;7220;49.450;11.052;2023-07-22T14:01:36;97960.19;;;24.77;41.89
14273;BME280;7220;49.450;11.052;2023-07-22T14:05:36;97955.31;;;25.80;39.79
14273;BME280;7220;49.450;11.052;2023-07-22T14:09:36;97949.69;;;25.44;40.30
14273;BME280;7220;49.450;11.052;2023-07-22T14:13:37;97947.94;;;25.04;41.08
14273;BME280;7220;49.450;11.052;2023-07-22T14:17:37;97946.72;;;24.84;42.08
14273;BME280;7220;49.450;11.052;2023-07-22T14:21:39;97944.13;;;24.91;42.14
14273;BME280;7220;49.450;11.052;2023-07-22T14:25:39;97937.66;;;24.60;42.67
14273;BME280;7220;49.450;11.052;2023-07-22T14:29:39;97939.66;;;24.98;41.60
14273;BME280;7220;49.450;11.052;2023-07-22T14:33:39;97936.78;;;25.46;41.07
14273;BME280;7220;49.450;11.052;2023-07-22T14:37:40;97927.13;;;25.88;40.26
14273;BME280;7220;49.450;11.052;2023-07-22T14:41:41;97924.22;;;26.05;40.27
14273;BME280;7220;49.450;11.052;2023-07-22T14:45:43;97913.53;;;25.88;40.22
14273;BME280;7220;49.450;11.052;2023-07-22T14:49:43;97917.31;;;26.17;38.89
14273;BME280;7220;49.450;11.052;2023-07-22T14:53:43;97920.13;;;25.79;39.55
14273;BME280;7220;49.450;11.052;2023-07-22T14:57:44;97903.31;;;25.90;39.34
14273;BME280;7220;49.450;11.052;2023-07-22T15:01:45;97896.34;;;26.18;39.05
14273;BME280;7220;49.450;11.052;2023-07-22T15:05:45;97901.78;;;26.48;38.35
14273;BME280;7220;49.450;11.052;2023-07-22T15:09:46;97898.81;;;26.12;38.61
14273;BME280;7220;49.450;11.052;2023-07-22T15:13:46;97902.09;;;25.78;39.09
14273;BME280;7220;49.450;11.052;2023-07-22T15:17:46;97906.13;;;25.97;38.94
14273;BME280;7220;49.450;11.052;2023-07-22T15:21:46;97893.84;;;25.86;39.58
14273;BME280;7220;49.450;11.052;2023-07-22T15:25:47;97899.66;;;25.83;39.29
14273;BME280;7220;49.450;11.052;2023-07-22T15:29:47;97893.44;;;26.04;39.04
14273;BME280;7220;49.450;11.052;2023-07-22T15:33:48;97891.78;;;26.18;38.93
14273;BME280;7220;49.450;11.052;2023-07-22T15:37:49;97888.28;;;26.24;38.94
14273;BME280;7220;49.450;11.052;2023-07-22T15:41:49;97890.09;;;26.17;39.28
14273;BME280;7220;49.450;11.052;2023-07-22T15:45:49;97888.53;;;26.29;39.38
14273;BME280;7220;49.450;11.052;2023-07-22T15:49:49;97884.91;;;25.92;39.79
14273;BME280;7220;49.450;11.052;2023-07-22T15:53:50;97879.66;;;25.76;39.65
14273;BME280;7220;49.450;11.052;2023-07-22T15:57:50;97880.13;;;25.94;38.98
14273;BME280;7220;49.450;11.052;2023-07-22T16:01:50;97878.03;;;25.96;39.33
14273;BME280;7220;49.450;11.052;2023-07-22T16:05:51;97863.22;;;25.84;39.75
14273;BME280;7220;49.450;11.052;2023-07-22T16:09:51;97860.03;;;25.95;39.35
14273;BME280;7220;49.450;11.052;2023-07-22T16:13:51;97872.22;;;25.99;38.97
14273;BME280;7220;49.450;11.052;2023-07-22T16:17:52;97855.31;;;25.89;38.97
14273;BME280;7220;49.450;11.052;2023-07-22T16:21:52;97876.16;;;26.12;37.98
14273;BME280;7220;49.450;11.052;2023-07-22T16:25:52;97865.53;;;26.32;37.61
14273;BME280;7220;49.450;11.052;2023-07-22T16:29:53;97861.38;;;26.36;37.12
14273;BME280;7220;49.450;11.052;2023-07-22T16:33:53;97861.16;;;26.16;37.78
14273;BME280;7220;49.450;11.052;2023-07-22T16:37:56;97850.53;;;25.76;38.11
14273;BME280;7220;49.450;11.052;2023-07-22T16:41:56;97863.50;;;25.44;38.52
14273;BME280;7220;49.450;11.052;2023-07-22T16:45:57;97858.25;;;25.43;38.56
14273;BME280;7220;49.450;11.052;2023-07-22T16:49:57;97867.19;;;25.28;38.54
14273;BME280;7220;49.450;11.052;2023-07-22T16:53:58;97863.31;;;25.08;39.19
14273;BME280;7220;49.450;11.052;2023-07-22T16:57:58;97859.31;;;25.18;39.24
14273;BME280;7220;49.450;11.052;2023-07-22T17:01:58;97866.31;;;25.13;38.73
14273;BME280;7220;49.450;11.052;2023-07-22T17:05:59;97864.38;;;25.22;39.42
14273;BME280;7220;49.450;11.052;2023-07-22T17:09:59;97861.38;;;25.16;39.63
14273;BME280;7220;49.450;11.052;2023-07-22T17:13:59;97862.94;;;25.11;39.85
14273;BME280;7220;49.450;11.052;2023-07-22T17:18:00;97855.06;;;25.16;39.25
14273;BME280;7220;49.450;11.052;2023-07-22T17:22:00;97855.06;;;25.16;38.55
14273;BME280;7220;49.450;11.052;2023-07-22T17:26:00;97854.78;;;25.11;39.02
14273;BME280;7220;49.450;11.052;2023-07-22T17:30:01;97857.56;;;25.02;38.64
14273;BME280;7220;49.450;11.052;2023-07-22T17:34:01;97862.88;;;25.19;38.40
14273;BME280;7220;49.450;11.052;2023-07-22T17:38:02;97856.66;;;25.10;38.25
14273;BME280;7220;49.450;11.052;2023-07-22T17:42:02;97854.19;;;25.00;38.58
14273;BME280;7220;49.450;11.052;2023-07-22T17:46:04;97858.72;;;25.08;38.53
14273;BME280;7220;49.450;11.052;2023-07-22T17:50:04;97849.63;;;25.16;38.23
14273;BME280;7220;49.450;11.052;2023-07-22T17:54:05;97850.50;;;25.16;38.32
14273;BME280;7220;49.450;11.052;2023-07-22T17:58:05;97846.63;;;25.11;38.27
14273;BME280;7220;49.450;11.052;2023-07-22T18:02:06;97848.59;;;25.17;37.90
14273;BME280;7220;49.450;11.052;2023-07-22T18:06:06;97849.72;;;25.08;37.82
14273;BME280;7220;49.450;11.052;2023-07-22T18:10:07;97848.81;;;24.92;37.73
14273;BME280;7220;49.450;11.052;2023-07-22T18:14:08;97847.88;;;24.85;38.38
14273;BME280;7220;49.450;11.052;2023-07-22T18:18:08;97851.31;;;24.79;38.84
14273;BME280;7220;49.450;11.052;2023-07-22T18:22:08;97849.03;;;24.67;38.81
14273;BME280;7220;49.450;11.052;2023-07-22T18:26:09;97848.25;;;24.50;38.59
14273;BME280;7220;49.450;11.052;2023-07-22T18:30:09;97851.09;;;24.34;39.77
14273;BME280;7220;49.450;11.052;2023-07-22T18:34:10;97850.59;;;24.30;39.66
14273;BME280;7220;49.450;11.052;2023-07-22T18:38:11;97861.53;;;24.14;40.30
14273;BME280;7220;49.450;11.052;2023-07-22T18:42:11;97862.22;;;24.16;39.70
14273;BME280;7220;49.450;11.052;2023-07-22T18:46:16;97862.44;;;24.06;39.95
14273;BME280;7220;49.450;11.052;2023-07-22T18:50:16;97860.97;;;23.95;39.90
14273;BME280;7220;49.450;11.052;2023-07-22T18:54:17;97876.75;;;23.83;40.34
14273;BME280;7220;49.450;11.052;2023-07-22T18:58:17;97875.25;;;23.72;40.55
14273;BME280;7220;49.450;11.052;2023-07-22T19:02:17;97883.78;;;23.61;41.07
14273;BME280;7220;49.450;11.052;2023-07-22T19:06:18;97889.03;;;23.54;40.96
14273;BME280;7220;49.450;11.052;2023-07-22T19:10:18;97886.53;;;23.44;41.13
14273;BME280;7220;49.450;11.052;2023-07-22T19:14:18;97897.72;;;23.33;41.28
14273;BME280;7220;49.450;11.052;2023-07-22T19:18:19;97900.78;;;23.22;41.45
14273;BME280;7220;49.450;11.052;2023-07-22T19:22:19;97901.78;;;23.12;41.73
14273;BME280;7220;49.450;11.052;2023-07-22T19:26:19;97909.56;;;23.07;41.75
14273;BME280;7220;49.450;11.052;2023-07-22T19:30:20;97912.59;;;22.96;42.29
14273;BME280;7220;49.450;11.052;2023-07-22T19:34:20;97911.91;;;22.85;42.97
14273;BME280;7220;49.450;11.052;2023-07-22T19:38:20;97906.47;;;22.77;42.82
14273;BME280;7220;49.450;11.052;2023-07-22T19:42:21;97909.69;;;22.64;42.87
14273;BME280;7220;49.450;11.052;2023-07-22T19:46:22;97909.00;;;22.54;43.41
14273;BME280;7220;49.450;11.052;2023-07-22T19:50:22;97908.97;;;22.46;43.99
14273;BME280;7220;49.450;11.052;2023-07-22T19:54:22;97915.34;;;22.36;44.23
14273;BME280;7220;49.450;11.052;2023-07-22T19:58:23;97913.41;;;22.20;44.45
14273;BME280;7220;49.450;11.052;2023-07-22T20:02:27;97914.78;;;22.16;44.91
14273;BME280;7220;49.450;11.052;2023-07-22T20:06:27;97917.44;;;22.08;45.37
14273;BME280;7220;49.450;11.052;2023-07-22T20:10:27;97916.88;;;21.96;45.73
14273;BME280;7220;49.450;11.052;2023-07-22T20:14:28;97922.44;;;21.86;45.95
14273;BME280;7220;49.450;11.052;2023-07-22T20:18:28;97922.38;;;21.78;45.97
14273;BME280;7220;49.450;11.052;2023-07-22T20:22:29;97926.41;;;21.74;46.25
14273;BME280;7220;49.450;11.052;2023-07-22T20:26:29;97918.25;;;21.66;46.39
14273;BME280;7220;49.450;11.052;2023-07-22T20:30:30;97929.16;;;21.56;46.16
14273;BME280;7220;49.450;11.052;2023-07-22T20:34:30;97929.63;;;21.51;46.57
14273;BME280;7220;49.450;11.052;2023-07-22T20:38:31;97924.63;;;21.38;46.95
14273;BME280;7220;49.450;11.052;2023-07-22T20:42:31;97918.63;;;21.26;48.03
14273;BME280;7220;49.450;11.052;2023-07-22T20:46:31;97915.69;;;21.20;47.67
14273;BME280;7220;49.450;11.052;2023-07-22T20:50:35;97928.31;;;21.11;48.30
14273;BME280;7220;49.450;11.052;2023-07-22T20:54:35;97925.91;;;21.08;48.38
14273;BME280;7220;49.450;11.052;2023-07-22T20:58:35;97928.94;;;21.05;47.81
14273;BME280;7220;49.450;11.052;2023-07-22T21:02:36;97925.16;;;20.98;48.25
14273;BME280;7220;49.450;11.052;2023-07-22T21:06:36;97927.47;;;20.92;48.28
14273;BME280;7220;49.450;11.052;2023-07-22T21:10:37;97930.72;;;20.78;49.12